createdAt,value
2024-04-10T00:00:17.825Z,95746.00
2024-04-10T00:01:17.900Z,95744.00
2024-04-10T00:02:17.855Z,95746.00
2024-04-10T00:03:19.886Z,95745.00
2024-04-10T00:04:18.037Z,95746.00
2024-04-10T00:05:18.219Z,95748.00
2024-04-10T00:06:17.877Z,95752.00
2024-04-10T00:07:17.833Z,95751.00
2024-04-10T00:08:17.930Z,95751.00
2024-04-10T00:09:17.833Z,95750.00
2024-04-10T00:10:17.884Z,95752.00
2024-04-10T00:11:17.953Z,95756.00
2024-04-10T00:12:17.902Z,95757.00
2024-04-10T00:13:17.844Z,95760.00
2024-04-10T00:14:17.957Z,95761.00
2024-04-10T00:15:17.854Z,95759.00
2024-04-10T00:16:17.864Z,95758.00
2024-04-10T00:17:18.035Z,95758.00
2024-04-10T00:18:17.957Z,95760.00
2024-04-10T00:19:17.943Z,95761.00
2024-04-10T00:20:18.034Z,95767.00
2024-04-10T00:21:17.880Z,95767.00
2024-04-10T00:22:17.855Z,95768.00
2024-04-10T00:23:17.934Z,95769.00
2024-04-10T00:24:17.874Z,95773.00
2024-04-10T00:25:17.857Z,95772.00
2024-04-10T00:26:17.948Z,95772.00
2024-04-10T00:27:17.969Z,95771.00
2024-04-10T00:28:17.968Z,95770.00
2024-04-10T00:29:18.011Z,95773.00
2024-04-10T00:30:18.060Z,95776.00
2024-04-10T00:31:18.095Z,95775.00
2024-04-10T00:32:18.275Z,95774.00
2024-04-10T00:33:18.199Z,95774.00
2024-04-10T00:34:18.218Z,95773.00
2024-04-10T00:35:18.244Z,95774.00
2024-04-10T00:36:18.276Z,95774.00
2024-04-10T00:37:18.322Z,95775.00
2024-04-10T00:38:18.427Z,95773.00
2024-04-10T00:39:18.428Z,95774.00
2024-04-10T00:40:18.449Z,95773.00
2024-04-10T00:41:18.533Z,95775.00
2024-04-10T00:42:18.545Z,95777.00
2024-04-10T00:43:18.607Z,95777.00
2024-04-10T00:44:18.725Z,95780.00
2024-04-10T00:45:18.681Z,95781.00
2024-04-10T00:46:18.729Z,95785.00
2024-04-10T00:47:18.998Z,95786.00
2024-04-10T00:48:18.991Z,95786.00
2024-04-10T00:49:18.912Z,95789.00
2024-04-10T00:50:18.994Z,95786.00
2024-04-10T00:51:18.967Z,95786.00
2024-04-10T00:52:19.096Z,95788.00
2024-04-10T00:53:19.115Z,95786.00
2024-04-10T00:54:19.100Z,95787.00
2024-04-10T00:55:19.228Z,95788.00
2024-04-10T00:56:22.177Z,95788.00
2024-04-10T00:57:19.209Z,95788.00
2024-04-10T00:58:19.210Z,95788.00
2024-04-10T00:59:19.372Z,95789.00
2024-04-10T01:00:19.219Z,95789.00
2024-04-10T01:01:19.308Z,95788.00
2024-04-10T01:02:19.279Z,95788.00
2024-04-10T01:03:19.377Z,95786.00
2024-04-10T01:04:19.395Z,95785.00
2024-04-10T01:05:19.262Z,95783.00
2024-04-10T01:06:19.239Z,95782.00
2024-04-10T01:07:19.230Z,95782.00
2024-04-10T01:08:19.285Z,95783.00
2024-04-10T01:09:19.239Z,95786.00
2024-04-10T01:10:19.228Z,95786.00
2024-04-10T01:11:19.441Z,95788.00
2024-04-10T01:12:19.363Z,95792.00
2024-04-10T01:13:19.255Z,95791.00
2024-04-10T01:14:19.286Z,95792.00
2024-04-10T01:15:19.257Z,95789.00
2024-04-10T01:16:19.287Z,95790.00
2024-04-10T01:17:19.352Z,95788.00
2024-04-10T01:18:19.328Z,95787.00
2024-04-10T01:19:19.256Z,95787.00
2024-04-10T01:20:19.296Z,95787.00
2024-04-10T01:21:19.271Z,95789.00
2024-04-10T01:22:19.241Z,95790.00
2024-04-10T01:23:19.322Z,95792.00
2024-04-10T01:24:19.263Z,95792.00
2024-04-10T01:25:19.249Z,95794.00
2024-04-10T01:26:19.369Z,95795.00
2024-04-10T01:27:19.412Z,95798.00
2024-04-10T01:28:19.446Z,95803.00
2024-04-10T01:29:19.561Z,95806.00
2024-04-10T01:30:19.541Z,95810.00
2024-04-10T01:31:19.605Z,95812.00
2024-04-10T01:32:19.760Z,95811.00
2024-04-10T01:33:19.799Z,95808.00
2024-04-10T01:34:19.875Z,95804.00
2024-04-10T01:35:19.924Z,95803.00
2024-04-10T01:36:19.890Z,95799.00
2024-04-10T01:37:19.940Z,95797.00
2024-04-10T01:38:20.058Z,95795.00
2024-04-10T01:39:20.028Z,95794.00
2024-04-10T01:40:20.081Z,95796.00
2024-04-10T01:41:20.204Z,95797.00
2024-04-10T01:42:20.267Z,95795.00
2024-04-10T01:43:20.248Z,95794.00
2024-04-10T01:44:20.397Z,95795.00
2024-04-10T01:45:20.350Z,95793.00
2024-04-10T01:46:20.409Z,95794.00
2024-04-10T01:47:20.562Z,95797.00
2024-04-10T01:48:20.688Z,95799.00
2024-04-10T01:49:20.644Z,95802.00
2024-04-10T01:50:20.693Z,95803.00
2024-04-10T01:51:20.689Z,95808.00
2024-04-10T01:52:20.745Z,95807.00
2024-04-10T01:53:20.906Z,95809.00
2024-04-10T01:54:20.849Z,95808.00
2024-04-10T01:55:20.919Z,95809.00
2024-04-10T01:56:21.019Z,95812.00
2024-04-10T01:57:21.014Z,95813.00
2024-04-10T01:58:21.108Z,95811.00
2024-04-10T01:59:21.186Z,95812.00
2024-04-10T02:00:21.186Z,95810.00
2024-04-10T02:01:21.243Z,95810.00
2024-04-10T02:02:21.374Z,95808.00
2024-04-10T02:03:21.481Z,95811.00
2024-04-10T02:04:21.448Z,95814.00
2024-04-10T02:05:21.792Z,95815.00
2024-04-10T02:06:21.534Z,95819.00
2024-04-10T02:07:21.572Z,95816.00
2024-04-10T02:08:21.661Z,95816.00
2024-04-10T02:09:21.686Z,95816.00
2024-04-10T02:10:21.741Z,95817.00
2024-04-10T02:11:21.886Z,95816.00
2024-04-10T02:12:21.856Z,95816.00
2024-04-10T02:13:21.915Z,95815.00
2024-04-10T02:14:21.999Z,95816.00
2024-04-10T02:15:22.025Z,95817.00
2024-04-10T02:16:22.109Z,95812.00
2024-04-10T02:17:22.258Z,95812.00
2024-04-10T02:18:22.328Z,95810.00
2024-04-10T02:19:22.292Z,95809.00
2024-04-10T02:20:22.379Z,95810.00
2024-04-10T02:21:22.408Z,95810.00
2024-04-10T02:22:22.475Z,95814.00
2024-04-10T02:23:23.099Z,95814.00
2024-04-10T02:24:22.586Z,95813.00
2024-04-10T02:25:22.654Z,95811.00
2024-04-10T02:26:22.805Z,95810.00
2024-04-10T02:27:22.781Z,95807.00
2024-04-10T02:28:22.833Z,95806.00
2024-04-10T02:29:22.931Z,95803.00
2024-04-10T02:30:22.954Z,95803.00
2024-04-10T02:31:23.019Z,95804.00
2024-04-10T02:32:23.271Z,95804.00
2024-04-10T02:33:23.210Z,95808.00
2024-04-10T02:34:23.263Z,95810.00
2024-04-10T02:35:23.317Z,95811.00
2024-04-10T02:36:23.342Z,95812.00
2024-04-10T02:37:23.404Z,95812.00
2024-04-10T02:38:23.594Z,95813.00
2024-04-10T02:39:23.566Z,95814.00
2024-04-10T02:40:23.654Z,95816.00
2024-04-10T02:41:23.718Z,95817.00
2024-04-10T02:42:23.744Z,95817.00
2024-04-10T02:43:23.818Z,95820.00
2024-04-10T02:44:23.914Z,95819.00
2024-04-10T02:45:23.949Z,95822.00
2024-04-10T02:46:24.102Z,95820.00
2024-04-10T02:47:24.115Z,95822.00
2024-04-10T02:48:24.183Z,95823.00
2024-04-10T02:49:24.195Z,95822.00
2024-04-10T02:50:24.362Z,95822.00
2024-04-10T02:51:24.327Z,95825.00
2024-04-10T02:52:24.379Z,95823.00
2024-04-10T02:53:24.646Z,95821.00
2024-04-10T02:54:24.513Z,95820.00
2024-04-10T02:55:24.584Z,95819.00
2024-04-10T02:56:24.782Z,95822.00
2024-04-10T02:57:24.714Z,95823.00
2024-04-10T02:58:24.811Z,95825.00
2024-04-10T02:59:24.943Z,95830.00
2024-04-10T03:00:24.912Z,95832.00
2024-04-10T03:01:24.973Z,95832.00
2024-04-10T03:02:25.115Z,95834.00
2024-04-10T03:03:25.239Z,95831.00
2024-04-10T03:04:25.219Z,95829.00
2024-04-10T03:05:25.286Z,95829.00
2024-04-10T03:06:25.298Z,95830.00
2024-04-10T03:07:25.372Z,95828.00
2024-04-10T03:08:25.446Z,95830.00
2024-04-10T03:09:25.494Z,95832.00
2024-04-10T03:10:25.557Z,95833.00
2024-04-10T03:11:25.716Z,95837.00
2024-04-10T03:12:25.778Z,95838.00
2024-04-10T03:13:25.767Z,95842.00
2024-04-10T03:14:25.868Z,95841.00
2024-04-10T03:15:25.892Z,95844.00
2024-04-10T03:16:25.996Z,95845.00
2024-04-10T03:17:26.177Z,95848.00
2024-04-10T03:18:26.211Z,95850.00
2024-04-10T03:19:26.158Z,95852.00
2024-04-10T03:20:26.307Z,95855.00
2024-04-10T03:21:26.294Z,95858.00
2024-04-10T03:22:26.364Z,95861.00
2024-04-10T03:23:26.513Z,95863.00
2024-04-10T03:24:26.504Z,95863.00
2024-04-10T03:25:26.576Z,95859.00
2024-04-10T03:26:26.773Z,95859.00
2024-04-10T03:27:26.703Z,95855.00
2024-04-10T03:28:26.768Z,95856.00
2024-04-10T03:29:26.956Z,95855.00
2024-04-10T03:30:26.905Z,95854.00
2024-04-10T03:31:26.971Z,95854.00
2024-04-10T03:32:27.111Z,95854.00
2024-04-10T03:33:27.274Z,95851.00
2024-04-10T03:34:27.257Z,95851.00
2024-04-10T03:35:27.361Z,95847.00
2024-04-10T03:36:27.314Z,95849.00
2024-04-10T03:37:27.382Z,95851.00
2024-04-10T03:38:27.588Z,95853.00
2024-04-10T03:39:27.532Z,95854.00
2024-04-10T03:40:27.584Z,95854.00
2024-04-10T03:41:27.736Z,95850.00
2024-04-10T03:42:27.726Z,95851.00
2024-04-10T03:43:27.796Z,95850.00
2024-04-10T03:44:28.015Z,95854.00
2024-04-10T03:45:27.929Z,95856.00
2024-04-10T03:46:28.013Z,95858.00
2024-04-10T03:47:28.259Z,95858.00
2024-04-10T03:48:28.253Z,95857.00
2024-04-10T03:49:28.206Z,95852.00
2024-04-10T03:50:28.302Z,95851.00
2024-04-10T03:51:28.334Z,95851.00
2024-04-10T03:52:28.411Z,95850.00
2024-04-10T03:53:28.619Z,95853.00
2024-04-10T03:54:28.540Z,95854.00
2024-04-10T03:55:28.640Z,95855.00
2024-04-10T03:56:28.791Z,95855.00
2024-04-10T03:57:28.740Z,95853.00
2024-04-10T03:58:28.806Z,95854.00
2024-04-10T03:59:28.912Z,95856.00
2024-04-10T04:00:28.937Z,95856.00
2024-04-10T04:01:29.016Z,95856.00
2024-04-10T04:02:29.128Z,95855.00
2024-04-10T04:03:29.271Z,95854.00
2024-04-10T04:04:29.323Z,95853.00
2024-04-10T04:05:29.363Z,95854.00
2024-04-10T04:06:29.336Z,95856.00
2024-04-10T04:07:29.391Z,95861.00
2024-04-10T04:08:29.669Z,95860.00
2024-04-10T04:09:29.534Z,95859.00
2024-04-10T04:10:29.596Z,95856.00
2024-04-10T04:11:29.778Z,95857.00
2024-04-10T04:12:29.925Z,95859.00
2024-04-10T04:13:29.781Z,95863.00
2024-04-10T04:14:29.944Z,95866.00
2024-04-10T04:15:29.911Z,95869.00
2024-04-10T04:16:30.024Z,95873.00
2024-04-10T04:17:30.104Z,95874.00
2024-04-10T04:18:30.165Z,95877.00
2024-04-10T04:19:30.164Z,95880.00
2024-04-10T04:20:30.377Z,95878.00
2024-04-10T04:21:30.316Z,95880.00
2024-04-10T04:22:30.439Z,95883.00
2024-04-10T04:23:30.499Z,95886.00
2024-04-10T04:24:30.516Z,95889.00
2024-04-10T04:25:31.588Z,95889.00
2024-04-10T04:26:30.693Z,95887.00
2024-04-10T04:27:30.712Z,95886.00
2024-04-10T04:28:30.772Z,95885.00
2024-04-10T04:29:30.885Z,95884.00
2024-04-10T04:30:32.977Z,95885.00
2024-04-10T04:31:31.920Z,95884.00
2024-04-10T04:32:31.107Z,95887.00
2024-04-10T04:33:31.118Z,95888.00
2024-04-10T04:34:30.930Z,95890.00
2024-04-10T04:35:38.179Z,95889.00
2024-04-10T04:36:39.224Z,95889.00
2024-04-10T04:37:39.131Z,95889.00
2024-04-10T04:38:39.216Z,95889.00
2024-04-10T04:39:39.144Z,95891.00
2024-04-10T04:40:39.158Z,95890.00
2024-04-10T04:41:39.272Z,95890.00
2024-04-10T04:42:39.143Z,95889.00
2024-04-10T04:43:39.130Z,95891.00
2024-04-10T04:44:39.160Z,95891.00
2024-04-10T04:45:39.148Z,95894.00
2024-04-10T04:46:39.178Z,95895.00
2024-04-10T04:47:39.248Z,95898.00
2024-04-10T04:48:39.171Z,95900.00
2024-04-10T04:49:39.125Z,95901.00
2024-04-10T04:50:39.233Z,95903.00
2024-04-10T04:51:39.256Z,95904.00
2024-04-10T04:52:39.372Z,95910.00
2024-04-10T04:53:39.495Z,95911.00
2024-04-10T04:54:39.435Z,95912.00
2024-04-10T04:55:39.498Z,95912.00
2024-04-10T04:56:39.618Z,95912.00
2024-04-10T04:57:39.621Z,95910.00
2024-04-10T04:58:39.708Z,95908.00
2024-04-10T04:59:39.805Z,95909.00
2024-04-10T05:00:39.828Z,95910.00
2024-04-10T05:01:39.887Z,95910.00
2024-04-10T05:02:40.034Z,95910.00
2024-04-10T05:03:40.138Z,95915.00
2024-04-10T05:04:40.092Z,95917.00
2024-04-10T05:05:40.151Z,95921.00
2024-04-10T05:06:40.200Z,95918.00
2024-04-10T05:07:40.258Z,95920.00
2024-04-10T05:08:40.370Z,95923.00
2024-04-10T05:09:40.461Z,95924.00
2024-04-10T05:10:40.455Z,95925.00
2024-04-10T05:11:40.748Z,95927.00
2024-04-10T05:12:40.676Z,95925.00
2024-04-10T05:13:40.824Z,95926.00
2024-04-10T05:14:40.862Z,95925.00
2024-04-10T05:15:40.820Z,95926.00
2024-04-10T05:16:40.936Z,95925.00
2024-04-10T05:17:41.068Z,95925.00
2024-04-10T05:18:41.027Z,95924.00
2024-04-10T05:19:41.040Z,95925.00
2024-04-10T05:20:41.274Z,95927.00
2024-04-10T05:21:41.256Z,95925.00
2024-04-10T05:22:41.269Z,95928.00
2024-04-10T05:23:41.398Z,95929.00
2024-04-10T05:24:41.406Z,95933.00
2024-04-10T05:25:41.475Z,95936.00
2024-04-10T05:26:41.580Z,95939.00
2024-04-10T05:27:41.590Z,95942.00
2024-04-10T05:28:42.652Z,95945.00
2024-04-10T05:29:41.840Z,95946.00
2024-04-10T05:30:41.812Z,95950.00
2024-04-10T05:31:41.896Z,95958.00
2024-04-10T05:32:42.521Z,95957.00
2024-04-10T05:33:42.028Z,95959.00
2024-04-10T05:34:42.365Z,95959.00
2024-04-10T05:35:42.175Z,95956.00
2024-04-10T05:36:42.306Z,95953.00
2024-04-10T05:37:42.278Z,95954.00
2024-04-10T05:38:43.354Z,95952.00
2024-04-10T05:39:42.800Z,95951.00
2024-04-10T05:40:42.462Z,95952.00
2024-04-10T05:41:42.687Z,95954.00
2024-04-10T05:42:42.639Z,95950.00
2024-04-10T05:43:42.658Z,95952.00
2024-04-10T05:44:42.835Z,95952.00
2024-04-10T05:45:42.832Z,95953.00
2024-04-10T05:46:42.964Z,95957.00
2024-04-10T05:47:43.338Z,95956.00
2024-04-10T05:48:43.331Z,95961.00
2024-04-10T05:49:43.067Z,95960.00
2024-04-10T05:50:43.178Z,95964.00
2024-04-10T05:51:43.210Z,95969.00
2024-04-10T05:52:43.291Z,95977.00
2024-04-10T05:53:43.491Z,95977.00
2024-04-10T05:54:43.801Z,95986.00
2024-04-10T05:55:43.492Z,95988.00
2024-04-10T05:56:43.810Z,95993.00
2024-04-10T05:57:43.528Z,95996.00
2024-04-10T05:58:43.569Z,96000.00
2024-04-10T05:59:44.718Z,96004.00
2024-04-10T06:00:43.680Z,96007.00
2024-04-10T06:01:43.768Z,96007.00
2024-04-10T06:02:47.092Z,96011.00
2024-04-10T06:03:43.986Z,96009.00
2024-04-10T06:04:43.818Z,96009.00
2024-04-10T06:05:43.797Z,96007.00
2024-04-10T06:06:43.787Z,96009.00
2024-04-10T06:07:43.915Z,96009.00
2024-04-10T06:08:43.836Z,96009.00
2024-04-10T06:09:43.746Z,96010.00
2024-04-10T06:10:43.897Z,96013.00
2024-04-10T06:11:43.917Z,96015.00
2024-04-10T06:12:43.803Z,96015.00
2024-04-10T06:13:43.771Z,96020.00
2024-04-10T06:14:43.797Z,96018.00
2024-04-10T06:15:43.865Z,96019.00
2024-04-10T06:16:43.802Z,96020.00
2024-04-10T06:17:43.828Z,96020.00
2024-04-10T06:18:43.767Z,96022.00
2024-04-10T06:19:43.763Z,96026.00
2024-04-10T06:20:43.792Z,96026.00
2024-04-10T06:21:43.764Z,96028.00
2024-04-10T06:22:43.772Z,96029.00
2024-04-10T06:23:43.816Z,96032.00
2024-04-10T06:24:43.765Z,96031.00
2024-04-10T06:25:43.790Z,96032.00
2024-04-10T06:26:43.809Z,96030.00
2024-04-10T06:27:44.767Z,96032.00
2024-04-10T06:28:43.762Z,96032.00
2024-04-10T06:29:43.772Z,96031.00
2024-04-10T06:30:46.994Z,96034.00
2024-04-10T06:31:43.802Z,96030.00
2024-04-10T06:32:43.852Z,96032.00
2024-04-10T06:33:43.881Z,96028.00
2024-04-10T06:34:43.840Z,96027.00
2024-04-10T06:35:43.825Z,96029.00
2024-04-10T06:36:43.779Z,96031.00
2024-04-10T06:37:44.790Z,96035.00
2024-04-10T06:38:44.816Z,96042.00
2024-04-10T06:39:43.824Z,96049.00
2024-04-10T06:40:43.785Z,96059.00
2024-04-10T06:41:43.798Z,96065.00
2024-04-10T06:42:43.781Z,96071.00
2024-04-10T06:43:43.789Z,96073.00
2024-04-10T06:44:43.854Z,96074.00
2024-04-10T06:45:43.792Z,96080.00
2024-04-10T06:46:44.186Z,96080.00
2024-04-10T06:47:44.035Z,96079.00
2024-04-10T06:48:44.188Z,96080.00
2024-04-10T06:49:44.113Z,96079.00
2024-04-10T06:50:44.136Z,96078.00
2024-04-10T06:51:44.293Z,96078.00
2024-04-10T06:52:44.081Z,96074.00
2024-04-10T06:53:44.192Z,96076.00
2024-04-10T06:54:44.145Z,96074.00
2024-04-10T06:55:44.215Z,96072.00
2024-04-10T06:56:45.262Z,96072.00
2024-04-10T06:57:47.481Z,96072.00
2024-04-10T06:58:44.257Z,96073.00
2024-04-10T06:59:44.335Z,96074.00
2024-04-10T07:00:44.610Z,96075.00
2024-04-10T07:01:44.748Z,96074.00
2024-04-10T07:02:44.446Z,96074.00
2024-04-10T07:03:47.608Z,96077.00
2024-04-10T07:04:44.314Z,96077.00
2024-04-10T07:05:44.445Z,96077.00
2024-04-10T07:06:44.291Z,96077.00
2024-04-10T07:07:44.281Z,96074.00
2024-04-10T07:08:45.752Z,96075.00
2024-04-10T07:09:44.271Z,96074.00
2024-04-10T07:10:44.330Z,96074.00
2024-04-10T07:11:47.575Z,96074.00
2024-04-10T07:12:45.307Z,96075.00
2024-04-10T07:13:44.344Z,96075.00
2024-04-10T07:14:44.317Z,96078.00
2024-04-10T07:15:44.351Z,96077.00
2024-04-10T07:16:44.311Z,96078.00
2024-04-10T07:17:44.538Z,96079.00
2024-04-10T07:18:44.283Z,96080.00
2024-04-10T07:19:44.300Z,96084.00
2024-04-10T07:20:44.388Z,96084.00
2024-04-10T07:21:44.296Z,96085.00
2024-04-10T07:22:44.339Z,96084.00
2024-04-10T07:23:44.311Z,96084.00
2024-04-10T07:24:44.289Z,96084.00
2024-04-10T07:25:47.562Z,96084.00
2024-04-10T07:26:44.398Z,96086.00
2024-04-10T07:27:44.301Z,96090.00
2024-04-10T07:28:47.841Z,96092.00
2024-04-10T07:29:44.318Z,96096.00
2024-04-10T07:30:44.309Z,96096.00
2024-04-10T07:31:44.308Z,96098.00
2024-04-10T07:32:44.411Z,96100.00
2024-04-10T07:33:45.070Z,96103.00
2024-04-10T07:34:44.319Z,96104.00
2024-04-10T07:35:44.428Z,96105.00
2024-04-10T07:36:46.281Z,96105.00
2024-04-10T07:37:44.811Z,96108.00
2024-04-10T07:38:44.333Z,96111.00
2024-04-10T07:39:44.992Z,96111.00
2024-04-10T07:40:44.341Z,96112.00
2024-04-10T07:41:44.396Z,96114.00
2024-04-10T07:42:44.853Z,96112.00
2024-04-10T07:43:44.320Z,96106.00
2024-04-10T07:44:47.662Z,96109.00
2024-04-10T07:45:44.318Z,96106.00
2024-04-10T07:46:45.356Z,96107.00
2024-04-10T07:47:44.971Z,96112.00
2024-04-10T07:48:47.149Z,96112.00
2024-04-10T07:49:44.336Z,96110.00
2024-04-10T07:50:44.361Z,96112.00
2024-04-10T07:51:44.321Z,96108.00
2024-04-10T07:52:44.886Z,96110.00
2024-04-10T07:53:44.337Z,96111.00
2024-04-10T07:54:47.586Z,96111.00
2024-04-10T07:55:47.555Z,96111.00
2024-04-10T07:56:44.915Z,96109.00
2024-04-10T07:57:44.343Z,96111.00
2024-04-10T07:58:44.888Z,96111.00
2024-04-10T07:59:44.373Z,96113.00
2024-04-10T08:00:45.392Z,96117.00
2024-04-10T08:01:47.554Z,96123.00
2024-04-10T08:02:45.574Z,96125.00
2024-04-10T08:03:44.401Z,96129.00
2024-04-10T08:04:44.487Z,96133.00
2024-04-10T08:05:44.367Z,96135.00
2024-04-10T08:06:44.371Z,96137.00
2024-04-10T08:07:44.432Z,96140.00
2024-04-10T08:08:44.626Z,96144.00
2024-04-10T08:09:44.514Z,96143.00
2024-04-10T08:10:44.591Z,96145.00
2024-04-10T08:11:44.735Z,96145.00
2024-04-10T08:12:44.629Z,96149.00
2024-04-10T08:13:44.684Z,96149.00
2024-04-10T08:14:44.749Z,96151.00
2024-04-10T08:15:44.769Z,96156.00
2024-04-10T08:16:44.838Z,96155.00
2024-04-10T08:17:44.848Z,96159.00
2024-04-10T08:18:45.341Z,96158.00
2024-04-10T08:19:44.873Z,96159.00
2024-04-10T08:20:44.956Z,96161.00
2024-04-10T08:21:44.982Z,96163.00
2024-04-10T08:22:44.992Z,96161.00
2024-04-10T08:23:45.805Z,96165.00
2024-04-10T08:24:45.074Z,96167.00
2024-04-10T08:25:45.143Z,96166.00
2024-04-10T08:26:45.234Z,96174.00
2024-04-10T08:27:45.204Z,96178.00
2024-04-10T08:28:45.238Z,96182.00
2024-04-10T08:29:45.442Z,96182.00
2024-04-10T08:30:45.330Z,96179.00
2024-04-10T08:31:45.358Z,96178.00
2024-04-10T08:32:45.597Z,96177.00
2024-04-10T08:33:46.192Z,96176.00
2024-04-10T08:34:45.645Z,96180.00
2024-04-10T08:35:45.536Z,96184.00
2024-04-10T08:36:45.613Z,96184.00
2024-04-10T08:37:45.643Z,96185.00
2024-04-10T08:38:45.687Z,96186.00
2024-04-10T08:39:45.754Z,96188.00
2024-04-10T08:40:45.873Z,96185.00
2024-04-10T08:41:45.839Z,96186.00
2024-04-10T08:42:45.927Z,96187.00
2024-04-10T08:43:45.993Z,96186.00
2024-04-10T08:44:46.003Z,96187.00
2024-04-10T08:45:46.062Z,96188.00
2024-04-10T08:46:46.159Z,96191.00
2024-04-10T08:47:49.637Z,96189.00
2024-04-10T08:48:46.407Z,96191.00
2024-04-10T08:49:46.179Z,96193.00
2024-04-10T08:50:46.202Z,96192.00
2024-04-10T08:51:46.284Z,96192.00
2024-04-10T08:52:46.171Z,96192.00
2024-04-10T08:53:46.218Z,96190.00
2024-04-10T08:54:46.704Z,96191.00
2024-04-10T08:55:54.571Z,96190.00
2024-04-10T08:56:46.859Z,96191.00
2024-04-10T08:57:46.483Z,96192.00
2024-04-10T08:58:47.470Z,96196.00
2024-04-10T08:59:46.440Z,96201.00
2024-04-10T09:00:47.114Z,96204.00
2024-04-10T09:01:48.792Z,96207.00
2024-04-10T09:02:46.494Z,96206.00
2024-04-10T09:03:46.483Z,96207.00
2024-04-10T09:04:46.608Z,96205.00
2024-04-10T09:05:46.452Z,96204.00
2024-04-10T09:06:53.953Z,96206.00
2024-04-10T09:07:53.881Z,96211.00
2024-04-10T09:08:46.465Z,96213.00
2024-04-10T09:09:46.508Z,96211.00
2024-04-10T09:10:46.459Z,96209.00
2024-04-10T09:11:47.086Z,96204.00
2024-04-10T09:12:46.466Z,96204.00
2024-04-10T09:13:46.735Z,96202.00
2024-04-10T09:14:46.626Z,96202.00
2024-04-10T09:15:46.463Z,96198.00
2024-04-10T09:16:46.523Z,96195.00
2024-04-10T09:17:46.676Z,96196.00
2024-04-10T09:18:46.502Z,96195.00
2024-04-10T09:19:48.366Z,96198.00
2024-04-10T09:20:46.482Z,96204.00
2024-04-10T09:21:46.482Z,96205.00
2024-04-10T09:22:47.477Z,96203.00
2024-04-10T09:23:46.583Z,96204.00
2024-04-10T09:24:46.499Z,96205.00
2024-04-10T09:25:47.848Z,96202.00
2024-04-10T09:26:46.541Z,96204.00
2024-04-10T09:27:46.496Z,96203.00
2024-04-10T09:28:46.496Z,96204.00
2024-04-10T09:29:46.903Z,96205.00
2024-04-10T09:30:47.264Z,96208.00
2024-04-10T09:31:46.825Z,96205.00
2024-04-10T09:32:46.768Z,96208.00
2024-04-10T09:33:46.862Z,96209.00
2024-04-10T09:34:46.956Z,96212.00
2024-04-10T09:35:46.807Z,96212.00
2024-04-10T09:36:46.880Z,96217.00
2024-04-10T09:37:47.867Z,96216.00
2024-04-10T09:38:46.978Z,96212.00
2024-04-10T09:39:47.025Z,96216.00
2024-04-10T09:40:50.267Z,96213.00
2024-04-10T09:41:47.168Z,96213.00
2024-04-10T09:42:47.175Z,96217.00
2024-04-10T09:43:48.015Z,96218.00
2024-04-10T09:44:47.072Z,96223.00
2024-04-10T09:45:47.018Z,96224.00
2024-04-10T09:46:47.114Z,96226.00
2024-04-10T09:47:47.349Z,96227.00
2024-04-10T09:48:48.329Z,96227.00
2024-04-10T09:49:47.028Z,96229.00
2024-04-10T09:50:47.266Z,96231.00
2024-04-10T09:51:47.070Z,96234.00
2024-04-10T09:52:47.114Z,96235.00
2024-04-10T09:53:47.080Z,96239.00
2024-04-10T09:54:47.050Z,96237.00
2024-04-10T09:55:47.395Z,96238.00
2024-04-10T09:56:47.162Z,96238.00
2024-04-10T09:57:47.049Z,96239.00
2024-04-10T09:58:47.070Z,96238.00
2024-04-10T09:59:49.317Z,96236.00
2024-04-10T10:00:47.119Z,96234.00
2024-04-10T10:01:47.390Z,96233.00
2024-04-10T10:02:47.119Z,96231.00
2024-04-10T10:03:47.360Z,96231.00
2024-04-10T10:04:47.115Z,96226.00
2024-04-10T10:05:48.325Z,96229.00
2024-04-10T10:06:47.077Z,96230.00
2024-04-10T10:07:47.065Z,96230.00
2024-04-10T10:08:47.104Z,96235.00
2024-04-10T10:09:47.090Z,96241.00
2024-04-10T10:10:47.136Z,96243.00
2024-04-10T10:11:47.143Z,96248.00
2024-04-10T10:12:47.080Z,96249.00
2024-04-10T10:13:47.121Z,96249.00
2024-04-10T10:14:47.177Z,96242.00
2024-04-10T10:15:47.142Z,96241.00
2024-04-10T10:16:47.142Z,96238.00
2024-04-10T10:17:53.997Z,96235.00
2024-04-10T10:18:47.301Z,96233.00
2024-04-10T10:19:47.600Z,96233.00
2024-04-10T10:20:47.758Z,96235.00
2024-04-10T10:21:47.489Z,96240.00
2024-04-10T10:22:47.103Z,96243.00
2024-04-10T10:23:47.188Z,96243.00
2024-04-10T10:24:47.110Z,96244.00
2024-04-10T10:25:47.113Z,96242.00
2024-04-10T10:26:47.164Z,96238.00
2024-04-10T10:27:47.193Z,96238.00
2024-04-10T10:28:47.171Z,96228.00
2024-04-10T10:29:47.923Z,96227.00
2024-04-10T10:30:47.269Z,96228.00
2024-04-10T10:31:47.476Z,96229.00
2024-04-10T10:32:47.259Z,96227.00
2024-04-10T10:33:47.295Z,96225.00
2024-04-10T10:34:47.411Z,96225.00
2024-04-10T10:35:47.182Z,96227.00
2024-04-10T10:36:47.640Z,96226.00
2024-04-10T10:37:47.167Z,96228.00
2024-04-10T10:38:47.185Z,96231.00
2024-04-10T10:39:47.156Z,96232.00
2024-04-10T10:40:47.139Z,96229.00
2024-04-10T10:41:47.388Z,96229.00
2024-04-10T10:42:47.578Z,96228.00
2024-04-10T10:43:47.629Z,96231.00
2024-04-10T10:44:47.903Z,96228.00
2024-04-10T10:45:47.959Z,96226.00
2024-04-10T10:46:48.098Z,96223.00
2024-04-10T10:47:47.959Z,96225.00
2024-04-10T10:48:48.223Z,96224.00
2024-04-10T10:49:48.288Z,96225.00
2024-04-10T10:50:48.314Z,96227.00
2024-04-10T10:51:48.192Z,96226.00
2024-04-10T10:52:48.351Z,96228.00
2024-04-10T10:53:48.502Z,96232.00
2024-04-10T10:54:48.324Z,96229.00
2024-04-10T10:55:48.082Z,96228.00
2024-04-10T10:56:48.697Z,96225.00
2024-04-10T10:57:48.341Z,96224.00
2024-04-10T10:58:48.576Z,96224.00
2024-04-10T10:59:48.446Z,96225.00
2024-04-10T11:00:48.484Z,96222.00
2024-04-10T11:01:48.586Z,96225.00
2024-04-10T11:02:48.539Z,96221.00
2024-04-10T11:03:48.221Z,96221.00
2024-04-10T11:04:48.199Z,96222.00
2024-04-10T11:05:48.311Z,96225.00
2024-04-10T11:06:48.217Z,96228.00
2024-04-10T11:07:48.202Z,96225.00
2024-04-10T11:08:48.295Z,96223.00
2024-04-10T11:09:48.292Z,96223.00
2024-04-10T11:10:48.354Z,96218.00
2024-04-10T11:11:48.457Z,96217.00
2024-04-10T11:12:48.418Z,96215.00
2024-04-10T11:13:49.352Z,96215.00
2024-04-10T11:14:48.469Z,96216.00
2024-04-10T11:15:48.521Z,96216.00
2024-04-10T11:16:48.620Z,96221.00
2024-04-10T11:17:49.172Z,96221.00
2024-04-10T11:18:48.560Z,96223.00
2024-04-10T11:19:52.693Z,96225.00
2024-04-10T11:20:48.853Z,96226.00
2024-04-10T11:21:48.858Z,96227.00
2024-04-10T11:22:49.437Z,96224.00
2024-04-10T11:23:49.061Z,96222.00
2024-04-10T11:24:49.034Z,96218.00
2024-04-10T11:25:49.072Z,96217.00
2024-04-10T11:26:49.185Z,96214.00
2024-04-10T11:27:49.152Z,96211.00
2024-04-10T11:28:49.202Z,96214.00
2024-04-10T11:29:49.442Z,96209.00
2024-04-10T11:30:49.666Z,96209.00
2024-04-10T11:31:49.327Z,96207.00
2024-04-10T11:32:49.410Z,96208.00
2024-04-10T11:33:49.574Z,96206.00
2024-04-10T11:34:49.463Z,96205.00
2024-04-10T11:35:51.347Z,96204.00
2024-04-10T11:36:49.417Z,96206.00
2024-04-10T11:37:49.408Z,96208.00
2024-04-10T11:38:49.494Z,96207.00
2024-04-10T11:39:49.413Z,96209.00
2024-04-10T11:40:49.407Z,96210.00
2024-04-10T11:41:49.493Z,96214.00
2024-04-10T11:42:49.432Z,96216.00
2024-04-10T11:43:49.445Z,96220.00
2024-04-10T11:44:49.511Z,96218.00